Weather at Litchfield Municipal Airport

Public forecast

Using degrees Fahrenheit for public forecast. Weather courtesy of forecast.io.

Current aviation weather report (METAR) for Litchfield Municipal Airport

Retrieved 2020/10/01 20:35 UTC (6 minutes ago):

KLJF 012035Z AUTO 32012KT 10SM BKN038 10/02 A3024 RMK AO2

Closest aviation forecast (TAF) to Litchfield Municipal Airport

Closest forecast is St Cloud Regional Airport, 32.9 nm (61.0 km) NE. Retrieved 2020/10/01 18:24 UTC (2 hours ago):

TAF KSTC 011722Z 0118/0218 33013G20KT P6SM SCT025 BKN035 FM020100 33005KT P6SM SCT250 FM021200 VRB03KT P6SM SCT025 BKN050